Time;durP1;ratioP1;P1;durP2;ratioP2;P2;SDS_P1;SDS_P2;PMS_P1;PMS_P2;Temp;Humidity;BMP_temperature;BMP_pressure;BME280_temperature;BME280_humidity;BME280_pressure;Samples;Min_cycle;Max_cycle;Signal;HPM_P1;HPM_P2
2020/12/18 00:05:18;;;;;;;4.50;1.55;;;7.20;99.90;;;;;;10437341;28;20056;-51
2020/12/18 00:10:39;;;;;;;7.25;2.05;;;7.00;99.90;;;;;;10439239;28;20040;-52
2020/12/18 00:16:00;;;;;;;4.93;3.00;;;6.90;99.90;;;;;;10437141;28;20488;-52
2020/12/18 00:21:22;;;;;;;4.63;2.33;;;7.00;99.90;;;;;;10442792;28;20890;-52
2020/12/18 00:26:43;;;;;;;5.88;1.17;;;6.90;99.90;;;;;;10436354;28;20389;-52
2020/12/18 00:32:05;;;;;;;4.03;1.80;;;6.80;99.90;;;;;;10441312;28;20040;-52
2020/12/18 00:37:26;;;;;;;3.95;1.33;;;6.90;99.90;;;;;;10433963;28;20025;-52
2020/12/18 00:42:47;;;;;;;5.65;2.08;;;6.90;99.90;;;;;;10429787;28;20048;-52
2020/12/18 00:48:08;;;;;;;3.65;1.92;;;6.90;99.90;;;;;;10442874;28;20040;-52
2020/12/18 00:53:29;;;;;;;6.68;2.88;;;6.90;99.90;;;;;;10447666;28;20048;-52
2020/12/18 00:58:50;;;;;;;8.93;3.13;;;6.80;99.90;;;;;;10445951;28;20041;-52
2020/12/18 01:04:11;;;;;;;8.05;2.65;;;6.80;99.90;;;;;;10453761;28;20102;-52
2020/12/18 01:09:32;;;;;;;8.43;2.90;;;6.80;99.90;;;;;;10442344;28;20052;-52
2020/12/18 01:14:53;;;;;;;16.55;3.17;;;6.80;99.90;;;;;;10447500;28;20187;-52
2020/12/18 01:20:14;;;;;;;6.20;3.10;;;6.80;99.90;;;;;;10444849;28;20110;-52
2020/12/18 01:25:35;;;;;;;5.43;2.70;;;6.80;99.90;;;;;;10444650;28;20041;-52
2020/12/18 01:30:56;;;;;;;10.73;3.78;;;6.80;99.90;;;;;;10444929;28;20060;-52
2020/12/18 01:36:18;;;;;;;8.40;2.45;;;6.80;99.90;;;;;;10442714;28;20511;-52
2020/12/18 01:41:39;;;;;;;7.20;3.08;;;6.80;99.90;;;;;;10445482;28;20045;-52
2020/12/18 01:47:00;;;;;;;6.20;2.85;;;6.80;99.90;;;;;;10446732;28;20045;-52
2020/12/18 01:52:24;;;;;;;5.90;2.45;;;6.80;99.90;;;;;;10443838;28;20052;-51
2020/12/18 01:57:45;;;;;;;7.07;2.20;;;6.80;99.90;;;;;;10445381;28;20033;-52
2020/12/18 02:03:06;;;;;;;4.82;2.15;;;6.80;99.90;;;;;;10444687;28;20508;-52
2020/12/18 02:08:29;;;;;;;8.50;3.03;;;6.80;99.90;;;;;;10446642;28;20131;-52
2020/12/18 02:13:54;;;;;;;7.28;2.58;;;6.80;99.90;;;;;;10447724;28;20049;-52
2020/12/18 02:19:19;;;;;;;8.88;3.42;;;6.70;99.90;;;;;;10453036;28;20029;-52
2020/12/18 02:24:47;;;;;;;15.95;2.80;;;6.70;99.90;;;;;;10443974;28;20033;-52
2020/12/18 02:30:11;;;;;;;6.15;1.98;;;6.70;99.90;;;;;;10445787;28;21075;-52
2020/12/18 02:35:33;;;;;;;7.65;2.42;;;6.70;99.90;;;;;;10425481;28;20124;-52
2020/12/18 02:40:54;;;;;;;4.15;1.58;;;6.70;99.90;;;;;;10440965;28;20041;-51
2020/12/18 02:46:18;;;;;;;6.63;2.95;;;6.60;99.90;;;;;;10444143;28;20438;-52
2020/12/18 02:51:40;;;;;;;4.75;1.90;;;6.60;99.90;;;;;;10449720;28;20036;-52
2020/12/18 02:57:02;;;;;;;9.50;1.95;;;6.60;99.90;;;;;;10443025;28;20048;-52
2020/12/18 03:02:23;;;;;;;4.28;2.03;;;6.60;99.90;;;;;;10440993;28;20044;-52
2020/12/18 03:07:44;;;;;;;9.80;3.63;;;6.60;99.90;;;;;;10441918;28;20043;-52
2020/12/18 03:13:05;;;;;;;6.47;2.25;;;6.60;99.90;;;;;;10446437;28;20037;-52
2020/12/18 03:18:26;;;;;;;5.85;2.17;;;6.60;99.90;;;;;;10446105;28;20049;-52
2020/12/18 03:23:47;;;;;;;6.97;2.20;;;6.60;99.90;;;;;;10443709;28;20044;-52
2020/12/18 03:29:07;;;;;;;9.70;3.00;;;6.50;99.90;;;;;;10440185;28;20049;-52
2020/12/18 03:34:28;;;;;;;5.60;2.83;;;6.50;99.90;;;;;;10438923;28;20123;-52
2020/12/18 03:39:49;;;;;;;7.10;2.10;;;6.50;99.90;;;;;;10439288;28;20038;-52
2020/12/18 03:45:11;;;;;;;9.25;3.10;;;6.60;99.90;;;;;;10442422;28;20388;-52
2020/12/18 03:50:32;;;;;;;8.68;2.92;;;6.50;99.90;;;;;;10422922;28;20677;-52
2020/12/18 03:55:53;;;;;;;3.95;1.52;;;6.50;99.90;;;;;;10438576;28;20025;-52
2020/12/18 04:01:13;;;;;;;6.75;1.85;;;6.50;99.90;;;;;;10435079;28;20541;-51
2020/12/18 04:06:34;;;;;;;10.52;3.40;;;6.50;99.90;;;;;;10447277;28;20033;-52
2020/12/18 04:11:55;;;;;;;13.48;1.80;;;6.50;99.90;;;;;;10440410;28;20049;-52
2020/12/18 04:17:16;;;;;;;4.43;1.58;;;6.50;99.90;;;;;;10438327;28;20045;-52
2020/12/18 04:22:37;;;;;;;13.43;2.08;;;6.60;99.90;;;;;;10443962;28;20121;-52
2020/12/18 04:27:59;;;;;;;13.20;2.15;;;6.60;99.90;;;;;;10442158;28;20045;-51
2020/12/18 04:33:20;;;;;;;10.77;2.78;;;6.60;99.90;;;;;;10440541;28;20037;-52
2020/12/18 04:38:40;;;;;;;5.50;1.67;;;6.70;99.90;;;;;;10443005;28;20098;-52
2020/12/18 04:44:02;;;;;;;7.85;2.85;;;6.70;99.90;;;;;;10437820;28;20032;-52
2020/12/18 04:49:24;;;;;;;10.27;2.70;;;6.70;99.90;;;;;;10436479;28;20143;-52
2020/12/18 04:54:47;;;;;;;7.75;3.28;;;6.80;99.90;;;;;;10435945;28;21192;-52
2020/12/18 05:00:08;;;;;;;9.60;2.15;;;6.80;99.90;;;;;;10433247;28;20452;-51
2020/12/18 05:05:29;;;;;;;8.10;3.20;;;6.80;99.90;;;;;;10424916;28;20607;-52
2020/12/18 05:10:50;;;;;;;4.63;1.98;;;6.90;99.90;;;;;;10433561;28;20106;-52
2020/12/18 05:16:12;;;;;;;4.70;1.20;;;6.90;99.90;;;;;;10432130;28;20384;-52
2020/12/18 05:21:35;;;;;;;6.70;2.55;;;6.90;99.90;;;;;;10434845;28;20068;-51
2020/12/18 05:26:57;;;;;;;7.55;1.92;;;7.00;99.90;;;;;;10434980;28;20033;-51
2020/12/18 05:32:18;;;;;;;5.45;1.42;;;7.00;99.90;;;;;;10434535;28;20064;-51
2020/12/18 05:37:39;;;;;;;3.20;1.58;;;6.90;99.90;;;;;;10441418;28;20033;-52
2020/12/18 05:43:07;;;;;;;4.25;1.35;;;7.00;99.90;;;;;;10439621;28;20432;-52
2020/12/18 05:48:28;;;;;;;4.57;2.03;;;7.00;99.90;;;;;;10417690;28;20047;-51
2020/12/18 05:54:07;;;;;;;6.68;3.25;;;7.00;99.90;;;;;;10446350;28;20123;-52
2020/12/18 05:59:29;;;;;;;7.03;1.95;;;7.00;99.90;;;;;;10445596;28;20029;-52
2020/12/18 06:04:49;;;;;;;2.70;0.80;;;7.00;99.90;;;;;;10449472;28;20700;-52
2020/12/18 06:10:11;;;;;;;4.72;1.75;;;7.10;99.90;;;;;;10446416;28;20567;-51
2020/12/18 06:15:33;;;;;;;9.35;2.08;;;7.10;99.90;;;;;;10447806;28;20055;-52
2020/12/18 06:20:56;;;;;;;3.88;1.02;;;7.10;99.90;;;;;;10444202;28;20085;-52
2020/12/18 06:26:20;;;;;;;3.72;1.52;;;7.20;99.90;;;;;;10446469;28;20032;-52
2020/12/18 06:31:41;;;;;;;3.80;1.10;;;7.30;99.90;;;;;;10443087;28;20057;-51
2020/12/18 06:37:02;;;;;;;5.18;1.52;;;7.20;99.90;;;;;;10439019;28;20072;-52
2020/12/18 06:42:30;;;;;;;4.07;1.45;;;7.30;99.90;;;;;;10439545;28;20048;-52
2020/12/18 06:47:51;;;;;;;6.60;1.42;;;7.30;99.90;;;;;;10441689;28;20041;-52
2020/12/18 06:53:15;;;;;;;3.50;1.45;;;7.30;99.90;;;;;;10442887;28;20066;-51
2020/12/18 06:58:36;;;;;;;3.50;1.45;;;7.30;99.90;;;;;;10439764;28;20041;-52
2020/12/18 07:03:57;;;;;;;10.98;2.80;;;7.30;99.90;;;;;;10438096;28;20044;-52
2020/12/18 07:09:20;;;;;;;4.22;1.42;;;7.40;99.90;;;;;;10440523;28;20440;-52
2020/12/18 07:14:47;;;;;;;5.43;2.05;;;7.40;99.90;;;;;;10446107;28;20048;-51
2020/12/18 07:20:08;;;;;;;8.35;2.92;;;7.50;99.90;;;;;;10448135;28;20047;-52
2020/12/18 07:25:29;;;;;;;5.00;1.75;;;7.40;99.90;;;;;;10442372;28;20041;-51
2020/12/18 07:30:50;;;;;;;10.63;2.72;;;7.50;99.90;;;;;;10445888;28;20037;-54
2020/12/18 07:36:12;;;;;;;4.30;1.88;;;7.50;99.90;;;;;;10443898;28;20044;-52
2020/12/18 07:41:33;;;;;;;9.75;3.25;;;7.50;99.90;;;;;;10441241;28;20036;-52
2020/12/18 07:46:55;;;;;;;5.80;2.03;;;7.60;99.90;;;;;;10439363;28;20373;-52
2020/12/18 07:52:16;;;;;;;9.57;3.58;;;7.70;99.90;;;;;;10445717;28;20052;-52
2020/12/18 07:57:37;;;;;;;6.07;2.83;;;7.80;99.90;;;;;;10441292;28;20447;-52
2020/12/18 08:02:58;;;;;;;15.00;4.85;;;7.80;99.90;;;;;;10431776;28;20064;-54
2020/12/18 08:08:20;;;;;;;5.60;2.50;;;7.90;99.90;;;;;;10447149;28;20465;-54
2020/12/18 08:13:41;;;;;;;7.88;2.60;;;8.00;99.90;;;;;;10442317;28;20048;-52
2020/12/18 08:19:08;;;;;;;7.50;2.30;;;8.10;99.90;;;;;;10436982;28;20044;-52
2020/12/18 08:24:34;;;;;;;11.80;3.42;;;8.20;99.90;;;;;;10434995;28;20079;-52
2020/12/18 08:29:56;;;;;;;7.35;2.33;;;8.20;99.90;;;;;;10437472;28;20071;-52
2020/12/18 08:35:21;;;;;;;6.82;3.17;;;8.30;99.90;;;;;;10438952;28;20044;-52
2020/12/18 08:40:43;;;;;;;8.32;1.85;;;8.30;99.90;;;;;;10431534;28;20112;-52
2020/12/18 08:46:04;;;;;;;7.88;2.70;;;8.30;99.90;;;;;;10444330;28;20029;-52
2020/12/18 08:51:27;;;;;;;6.88;1.98;;;8.30;99.90;;;;;;10439923;28;20037;-52
2020/12/18 08:57:13;;;;;;;5.82;2.05;;;8.40;99.90;;;;;;10443887;28;20032;-51
2020/12/18 09:02:59;;;;;;;6.47;2.17;;;8.50;99.90;;;;;;10434925;28;20056;-52
2020/12/18 09:08:20;;;;;;;6.85;2.83;;;8.60;99.90;;;;;;10441997;28;20037;-52
2020/12/18 09:13:45;;;;;;;7.13;2.38;;;8.70;99.90;;;;;;10444126;28;20056;-52
2020/12/18 09:19:06;;;;;;;7.00;2.65;;;8.70;99.90;;;;;;10445350;28;20124;-52
2020/12/18 09:24:27;;;;;;;8.60;2.95;;;8.80;99.90;;;;;;10444982;28;20037;-52
2020/12/18 09:29:58;;;;;;;11.68;2.22;;;8.90;99.90;;;;;;10442531;28;20515;-54
2020/12/18 09:35:19;;;;;;;4.28;1.67;;;9.00;99.90;;;;;;10434560;28;20158;-52
2020/12/18 09:40:40;;;;;;;8.82;1.90;;;9.10;99.90;;;;;;10441485;28;20124;-52
2020/12/18 09:46:01;;;;;;;5.93;1.63;;;9.10;99.90;;;;;;10439968;28;20116;-52
2020/12/18 09:51:22;;;;;;;7.00;1.67;;;9.20;99.90;;;;;;10442724;28;20051;-52
2020/12/18 09:56:44;;;;;;;10.43;2.00;;;9.30;99.90;;;;;;10435799;28;20090;-52
2020/12/18 10:02:06;;;;;;;5.22;2.28;;;9.30;99.90;;;;;;10444358;28;20038;-52
2020/12/18 10:07:27;;;;;;;4.70;2.13;;;9.40;99.90;;;;;;10445345;28;20065;-53
2020/12/18 10:12:48;;;;;;;4.72;1.95;;;9.40;99.90;;;;;;10443512;28;20047;-51
2020/12/18 10:18:09;;;;;;;7.35;1.77;;;9.50;99.90;;;;;;10445736;28;20060;-52
2020/12/18 10:23:30;;;;;;;3.80;1.58;;;9.40;99.90;;;;;;10445855;28;20071;-52
2020/12/18 10:28:51;;;;;;;3.13;1.48;;;9.50;99.90;;;;;;10449813;28;20037;-52
2020/12/18 10:34:12;;;;;;;5.82;1.63;;;9.90;99.90;;;;;;10445961;28;20084;-52
2020/12/18 10:39:33;;;;;;;3.67;1.27;;;10.40;99.90;;;;;;10443331;28;20137;-52
2020/12/18 10:44:54;;;;;;;5.93;1.55;;;10.50;99.90;;;;;;10441469;28;20028;-52
2020/12/18 10:50:15;;;;;;;4.07;1.35;;;10.80;99.90;;;;;;10435879;28;20052;-52
2020/12/18 10:55:36;;;;;;;5.32;1.85;;;11.10;99.90;;;;;;10439043;28;20700;-52
2020/12/18 11:00:57;;;;;;;2.03;0.90;;;11.60;99.90;;;;;;10424806;28;20044;-52
2020/12/18 11:06:18;;;;;;;2.65;1.20;;;12.00;99.90;;;;;;10436279;28;20703;-52
2020/12/18 11:11:39;;;;;;;3.95;1.25;;;12.20;99.90;;;;;;10437720;28;20511;-53
2020/12/18 11:17:00;;;;;;;5.45;1.00;;;12.90;99.90;;;;;;10441673;28;20044;-52
2020/12/18 11:22:21;;;;;;;6.72;0.73;;;13.50;99.90;;;;;;10434341;28;20133;-53
2020/12/18 11:27:42;;;;;;;3.08;1.25;;;14.00;99.90;;;;;;10436868;28;20033;-52
2020/12/18 11:33:03;;;;;;;1.17;0.60;;;13.80;99.90;;;;;;10434861;28;20053;-52
2020/12/18 11:38:24;;;;;;;3.78;0.80;;;14.20;99.90;;;;;;10423873;28;20032;-52
2020/12/18 11:43:45;;;;;;;1.70;0.77;;;14.40;99.90;;;;;;10430129;28;20127;-52
2020/12/18 11:49:06;;;;;;;3.50;1.20;;;14.20;99.90;;;;;;10436154;28;20116;-52
2020/12/18 11:54:27;;;;;;;3.45;0.82;;;14.90;99.90;;;;;;10435095;28;20798;-52
2020/12/18 11:59:48;;;;;;;1.98;0.55;;;14.80;99.90;;;;;;10440642;28;20464;-52
2020/12/18 12:05:11;;;;;;;5.63;1.23;;;14.90;99.90;;;;;;10436753;28;20135;-52
2020/12/18 12:10:34;;;;;;;2.63;1.05;;;14.50;99.90;;;;;;10436469;28;20061;-52
2020/12/18 12:15:55;;;;;;;2.97;0.93;;;15.00;99.90;;;;;;10428940;28;20029;-52
2020/12/18 12:21:16;;;;;;;4.40;0.82;;;15.10;99.90;;;;;;10426477;28;20646;-52
2020/12/18 12:26:37;;;;;;;4.32;1.25;;;14.60;99.90;;;;;;10429914;28;20128;-52
2020/12/18 12:31:58;;;;;;;1.58;0.60;;;14.10;99.90;;;;;;10429117;28;20041;-52
2020/12/18 12:37:19;;;;;;;2.17;0.60;;;13.80;99.90;;;;;;10423045;28;20397;-52
2020/12/18 12:42:40;;;;;;;1.48;0.50;;;14.40;99.90;;;;;;10434048;28;20102;-52
2020/12/18 12:48:01;;;;;;;1.63;0.63;;;14.20;99.90;;;;;;10431192;28;20044;-52
2020/12/18 12:53:22;;;;;;;1.70;0.82;;;14.70;99.90;;;;;;10434612;28;20047;-52
2020/12/18 12:58:43;;;;;;;2.58;0.50;;;14.80;99.90;;;;;;10440956;28;20033;-52
2020/12/18 13:04:04;;;;;;;3.25;0.82;;;14.30;99.90;;;;;;10442304;28;20060;-52
2020/12/18 13:09:25;;;;;;;1.42;0.50;;;14.10;99.90;;;;;;10438529;28;20696;-52
2020/12/18 13:14:46;;;;;;;2.17;0.80;;;13.70;99.90;;;;;;10438213;28;20056;-52
2020/12/18 13:20:07;;;;;;;1.20;0.40;;;13.60;99.90;;;;;;10434348;28;20040;-52
2020/12/18 13:25:28;;;;;;;2.45;0.98;;;13.00;99.90;;;;;;10438773;28;20041;-52
2020/12/18 13:30:49;;;;;;;3.35;1.17;;;13.30;99.90;;;;;;10435248;28;20241;-52
2020/12/18 13:36:10;;;;;;;2.58;1.00;;;12.60;99.90;;;;;;10434005;28;20488;-51
2020/12/18 13:41:31;;;;;;;2.45;0.68;;;11.90;99.90;;;;;;10444176;28;20033;-51
2020/12/18 13:46:52;;;;;;;1.25;0.68;;;11.80;99.90;;;;;;10442118;28;20461;-52
2020/12/18 13:52:13;;;;;;;1.98;0.63;;;11.60;99.90;;;;;;10439994;28;21077;-52
2020/12/18 13:57:34;;;;;;;2.60;0.88;;;11.60;99.90;;;;;;10436854;28;20397;-52
2020/12/18 14:02:55;;;;;;;2.15;0.88;;;11.50;99.90;;;;;;10442207;28;22273;-51
2020/12/18 14:08:16;;;;;;;1.95;0.95;;;11.40;99.90;;;;;;10435011;28;20098;-52
2020/12/18 14:13:37;;;;;;;2.63;0.57;;;11.40;99.90;;;;;;10443377;28;20032;-52
2020/12/18 14:18:58;;;;;;;2.15;0.50;;;11.30;99.90;;;;;;10439882;28;20121;-52
2020/12/18 14:24:20;;;;;;;3.20;0.63;;;11.40;99.90;;;;;;10440510;28;20056;-52
2020/12/18 14:29:41;;;;;;;1.75;0.30;;;11.20;99.90;;;;;;10435295;28;20110;-52
2020/12/18 14:35:04;;;;;;;6.13;0.70;;;11.10;99.90;;;;;;10438644;28;20045;-51
2020/12/18 14:40:25;;;;;;;3.10;0.80;;;11.10;99.90;;;;;;10441133;28;20761;-51
2020/12/18 14:45:46;;;;;;;3.83;0.20;;;11.10;99.90;;;;;;10445868;28;20419;-51
2020/12/18 14:51:09;;;;;;;1.42;0.40;;;11.10;99.90;;;;;;10432141;28;20102;-51
2020/12/18 14:56:30;;;;;;;1.02;0.55;;;11.00;99.90;;;;;;10434922;28;20209;-51
2020/12/18 15:01:54;;;;;;;5.35;0.88;;;10.80;99.90;;;;;;10438744;28;20037;-51
2020/12/18 15:07:15;;;;;;;2.45;0.63;;;10.80;99.90;;;;;;10436455;28;20032;-51
2020/12/18 15:12:36;;;;;;;2.35;0.70;;;10.70;99.90;;;;;;10437340;28;20055;-51
2020/12/18 15:17:57;;;;;;;1.48;0.45;;;10.60;99.90;;;;;;10436271;28;20040;-51
2020/12/18 15:23:18;;;;;;;2.58;1.05;;;10.60;99.90;;;;;;10437198;28;20040;-51
2020/12/18 15:28:39;;;;;;;0.50;0.22;;;10.50;99.90;;;;;;10433387;28;20196;-51
2020/12/18 15:34:00;;;;;;;1.15;0.57;;;10.60;99.90;;;;;;10433425;28;20786;-51
2020/12/18 15:39:21;;;;;;;1.23;0.47;;;10.50;99.90;;;;;;10433980;28;20098;-51
2020/12/18 15:44:42;;;;;;;0.80;0.32;;;10.50;99.90;;;;;;10432621;28;20033;-52
2020/12/18 15:50:03;;;;;;;1.10;0.35;;;10.50;99.90;;;;;;10444087;28;20041;-52
2020/12/18 15:55:24;;;;;;;0.82;0.40;;;10.40;99.90;;;;;;10441048;28;20131;-51
2020/12/18 16:00:45;;;;;;;1.42;0.13;;;10.40;99.90;;;;;;10440587;28;20543;-52
2020/12/18 16:06:08;;;;;;;0.70;0.30;;;10.40;99.90;;;;;;10443669;28;20041;-51
2020/12/18 16:11:28;;;;;;;1.20;0.43;;;10.30;99.90;;;;;;10440303;28;20130;-51
2020/12/18 16:16:50;;;;;;;1.50;0.40;;;10.30;99.90;;;;;;10447976;28;20040;-51
2020/12/18 16:22:11;;;;;;;0.95;0.32;;;10.20;99.90;;;;;;10443809;28;20042;-51
2020/12/18 16:27:37;;;;;;;1.05;0.40;;;10.20;99.90;;;;;;10439650;28;20394;-51
2020/12/18 16:32:58;;;;;;;2.00;0.57;;;10.20;99.90;;;;;;10437719;28;20076;-51
2020/12/18 16:38:19;;;;;;;0.32;0.25;;;10.20;99.90;;;;;;10438016;28;20127;-51
2020/12/18 16:43:40;;;;;;;0.60;0.30;;;10.10;99.90;;;;;;10445443;28;20037;-51
2020/12/18 16:49:03;;;;;;;1.05;0.35;;;10.10;99.90;;;;;;10445327;28;20442;-52
2020/12/18 16:54:24;;;;;;;0.93;0.32;;;10.10;99.90;;;;;;10440494;28;20101;-51
2020/12/18 16:59:45;;;;;;;1.70;0.68;;;10.00;99.90;;;;;;10440319;28;20045;-53
2020/12/18 17:05:05;;;;;;;8.18;0.85;;;9.90;99.90;;;;;;10434793;28;20508;-51
2020/12/18 17:10:27;;;;;;;1.67;0.57;;;9.90;99.90;;;;;;10428357;28;20062;-51
2020/12/18 17:15:48;;;;;;;1.20;0.43;;;9.80;99.90;;;;;;10434255;28;20400;-51
2020/12/18 17:21:09;;;;;;;1.40;0.68;;;9.70;99.90;;;;;;10428850;28;20039;-51
2020/12/18 17:26:29;;;;;;;0.70;0.25;;;9.70;99.90;;;;;;10438248;28;20068;-53
2020/12/18 17:31:51;;;;;;;1.92;0.43;;;9.70;99.90;;;;;;10443692;28;20124;-53
2020/12/18 17:37:13;;;;;;;1.70;0.40;;;9.70;99.90;;;;;;10449588;28;20450;-51
2020/12/18 17:42:34;;;;;;;2.05;0.63;;;9.70;99.90;;;;;;10444317;28;20045;-51
2020/12/18 17:47:55;;;;;;;4.00;0.55;;;9.60;99.90;;;;;;10442020;28;20168;-51
2020/12/18 17:53:16;;;;;;;2.97;1.15;;;9.50;99.90;;;;;;10438267;28;20091;-51
2020/12/18 17:58:38;;;;;;;1.00;0.40;;;9.60;99.90;;;;;;10441668;28;20503;-51
2020/12/18 18:03:59;;;;;;;0.68;0.25;;;9.70;99.90;;;;;;10438544;28;20029;-52
2020/12/18 18:09:21;;;;;;;4.43;0.60;;;9.60;99.90;;;;;;10439403;28;20041;-53
2020/12/18 18:14:41;;;;;;;3.25;0.55;;;9.60;99.90;;;;;;10436332;28;20634;-54
2020/12/18 18:20:02;;;;;;;1.40;0.30;;;9.60;99.90;;;;;;10436159;28;20998;-53
2020/12/18 18:25:23;;;;;;;1.85;0.63;;;9.60;99.90;;;;;;10438616;28;20512;-51
2020/12/18 18:30:46;;;;;;;3.17;0.35;;;9.60;99.90;;;;;;10435886;28;20052;-51
2020/12/18 18:36:08;;;;;;;0.82;0.38;;;9.60;99.90;;;;;;10437025;28;20036;-51
2020/12/18 18:41:33;;;;;;;6.75;1.50;;;9.70;99.90;;;;;;10440818;28;20751;-51
2020/12/18 18:47:01;;;;;;;1.65;0.60;;;9.70;99.90;;;;;;10449601;28;20137;-51
2020/12/18 18:52:22;;;;;;;1.60;0.70;;;9.70;99.90;;;;;;10442287;28;20679;-51
2020/12/18 18:57:43;;;;;;;1.27;0.70;;;9.60;99.90;;;;;;10439653;28;20140;-51
2020/12/18 19:03:04;;;;;;;2.35;0.70;;;9.50;99.90;;;;;;10441035;28;20370;-51
2020/12/18 19:08:25;;;;;;;2.88;0.68;;;9.50;99.90;;;;;;10441215;28;20044;-51
2020/12/18 19:13:46;;;;;;;1.08;0.50;;;9.40;99.90;;;;;;10442845;28;20059;-51
2020/12/18 19:19:11;;;;;;;1.77;1.02;;;9.40;99.90;;;;;;10443309;28;20094;-53
2020/12/18 19:24:32;;;;;;;4.78;0.90;;;9.30;99.90;;;;;;10448949;28;20600;-53
2020/12/18 19:29:53;;;;;;;2.95;1.50;;;9.30;99.90;;;;;;10446982;28;20131;-53
2020/12/18 19:35:14;;;;;;;2.33;0.75;;;9.30;99.90;;;;;;10438680;28;20056;-53
2020/12/18 19:40:35;;;;;;;3.50;0.73;;;9.20;99.90;;;;;;10444233;28;20298;-53
2020/12/18 19:45:56;;;;;;;2.38;0.60;;;9.20;99.90;;;;;;10444248;28;20033;-53
2020/12/18 19:51:19;;;;;;;2.60;0.63;;;9.20;99.90;;;;;;10431423;28;20060;-53
2020/12/18 19:56:40;;;;;;;4.53;1.17;;;9.20;99.90;;;;;;10436722;28;20036;-53
2020/12/18 20:02:01;;;;;;;2.45;0.90;;;9.10;99.90;;;;;;10440215;28;20131;-53
2020/12/18 20:07:22;;;;;;;3.20;1.10;;;9.10;99.90;;;;;;10436286;28;20060;-53
2020/12/18 20:12:47;;;;;;;2.47;0.85;;;9.10;99.90;;;;;;10438967;28;20048;-54
2020/12/18 20:18:09;;;;;;;3.05;1.13;;;9.00;99.90;;;;;;10444121;28;20037;-53
2020/12/18 20:23:30;;;;;;;2.10;0.90;;;9.00;99.90;;;;;;10440192;28;20044;-53
2020/12/18 20:28:51;;;;;;;2.40;0.77;;;8.90;99.90;;;;;;10436025;28;20048;-53
2020/12/18 20:34:12;;;;;;;4.57;1.25;;;9.00;99.90;;;;;;10435371;28;20570;-53
2020/12/18 20:39:33;;;;;;;6.35;1.42;;;8.80;99.90;;;;;;10436752;28;20857;-53
2020/12/18 20:44:54;;;;;;;3.08;1.27;;;8.90;99.90;;;;;;10438699;28;20036;-53
2020/12/18 20:50:15;;;;;;;2.63;0.98;;;8.90;99.90;;;;;;10438675;28;20120;-53
2020/12/18 20:55:36;;;;;;;3.78;1.08;;;8.80;99.90;;;;;;10435661;28;20049;-53
2020/12/18 21:00:57;;;;;;;3.42;0.95;;;8.80;99.90;;;;;;10438951;28;20044;-53
2020/12/18 21:06:18;;;;;;;1.95;1.02;;;8.80;99.90;;;;;;10442142;28;20048;-54
2020/12/18 21:11:39;;;;;;;3.85;1.23;;;8.70;99.90;;;;;;10439215;28;20056;-53
2020/12/18 21:17:00;;;;;;;5.05;1.40;;;8.70;99.90;;;;;;10441594;28;20114;-53
2020/12/18 21:22:21;;;;;;;3.40;1.02;;;8.70;99.90;;;;;;10437546;28;20147;-53
2020/12/18 21:27:47;;;;;;;2.40;1.27;;;8.60;99.90;;;;;;10436995;28;20029;-52
2020/12/18 21:33:08;;;;;;;6.95;1.67;;;8.70;99.90;;;;;;10440817;28;20048;-53
2020/12/18 21:38:29;;;;;;;2.75;1.30;;;8.70;99.90;;;;;;10435200;28;20037;-53
2020/12/18 21:43:50;;;;;;;4.18;1.05;;;8.60;99.90;;;;;;10449153;28;20503;-53
2020/12/18 21:49:12;;;;;;;2.58;1.17;;;8.60;99.90;;;;;;10441678;28;20044;-50
2020/12/18 21:54:33;;;;;;;3.47;1.77;;;8.50;99.90;;;;;;10441503;28;20098;-50
2020/12/18 21:59:54;;;;;;;2.97;1.73;;;8.40;99.90;;;;;;10438880;28;20045;-50
2020/12/18 22:05:15;;;;;;;3.25;1.13;;;8.40;99.90;;;;;;10422633;28;20043;-50
2020/12/18 22:10:36;;;;;;;2.47;1.23;;;8.30;99.90;;;;;;10444084;28;20131;-53
2020/12/18 22:15:57;;;;;;;3.63;1.42;;;8.30;99.90;;;;;;10443409;28;20500;-53
2020/12/18 22:21:18;;;;;;;7.78;1.25;;;8.30;99.90;;;;;;10446827;28;20035;-53
2020/12/18 22:26:39;;;;;;;7.05;1.42;;;8.30;99.90;;;;;;10439410;28;20040;-52
2020/12/18 22:32:04;;;;;;;3.75;1.30;;;8.20;99.90;;;;;;10444431;28;20045;-53
2020/12/18 22:37:25;;;;;;;3.45;1.70;;;8.10;99.90;;;;;;10447860;28;20036;-53
2020/12/18 22:42:47;;;;;;;5.95;2.08;;;8.00;99.90;;;;;;10443929;28;20044;-53
2020/12/18 22:48:08;;;;;;;3.50;1.95;;;8.00;99.90;;;;;;10444981;28;20040;-53
2020/12/18 22:53:29;;;;;;;3.85;1.88;;;7.90;99.90;;;;;;10427786;28;20207;-53
2020/12/18 22:58:50;;;;;;;4.65;1.60;;;7.90;99.90;;;;;;10440610;28;20139;-53
2020/12/18 23:04:10;;;;;;;5.13;1.67;;;7.90;99.90;;;;;;10443990;28;20048;-53
2020/12/18 23:09:32;;;;;;;5.03;2.03;;;7.80;99.90;;;;;;10447179;28;20036;-53
2020/12/18 23:14:53;;;;;;;6.55;1.48;;;7.90;99.90;;;;;;10443849;28;20046;-53
2020/12/18 23:20:14;;;;;;;5.68;1.80;;;7.90;99.90;;;;;;10443303;28;20951;-53
2020/12/18 23:25:35;;;;;;;5.43;2.30;;;7.70;99.90;;;;;;10439806;28;20587;-53
2020/12/18 23:30:56;;;;;;;6.18;2.13;;;7.60;99.90;;;;;;10442444;28;20424;-53
2020/12/18 23:36:17;;;;;;;7.13;1.88;;;7.50;99.90;;;;;;10406457;28;20029;-53
2020/12/18 23:41:38;;;;;;;4.85;1.73;;;7.50;99.90;;;;;;10401254;28;20033;-53
2020/12/18 23:46:59;;;;;;;7.85;2.47;;;7.40;99.90;;;;;;10402373;28;20079;-53
2020/12/18 23:52:20;;;;;;;5.05;2.55;;;7.30;99.90;;;;;;10400008;28;20140;-53
2020/12/18 23:57:41;;;;;;;3.72;1.83;;;7.30;99.90;;;;;;10399137;28;20039;-53
